Winona, Minnesota
Current Conditions -  °F | °C
As of 3:16 AM on Thursday 23 Oct 2014 (Local Time) from KONA Reporting Station
Overcast Overcast  
Wind Chill: 52°   Ceiling: 6000
Heat Index: 52°   Visibility: 10mi
Dew Point: 43°   Wind: 5mph
Humidity: 71%   Direction: 150°SSE
Pressure: 30.08"   Gusts: NA
Location:  44.05°N, 91.64°W
Report Text: KONA 230816Z AUTO 15004KT 10SM BKN060 OVC090 11/06 A3008 RMK AO2
Loading
Personal Weather Stations






























Interactive Weather Map
Tropical Storm Tracking
New forecast layout! Learn more

10-Day Weather Forecast

Advertisements
Track Severe Weather on mobile